Time;durP1;ratioP1;P1;durP2;ratioP2;P2;SDS_P1;SDS_P2;PMS_P1;PMS_P2;Temp;Humidity;BMP_temperature;BMP_pressure;BME280_temperature;BME280_humidity;BME280_pressure;Samples;Min_cycle;Max_cycle;Signal;HPM_P1;HPM_P2
2022/06/13 00:00:29;;;;;;;7.65;5.22;;;;;;;;;;5111298;27;20396;-71
2022/06/13 00:03:21;;;;;;;13.25;5.45;;;;;;;;;;5110938;27;20411;-71
2022/06/13 00:07:37;;;;;;;7.45;4.63;;;;;;;;;;5111921;27;20389;-71
2022/06/13 00:10:03;;;;;;;7.03;4.90;;;;;;;;;;5110755;28;20093;-71
2022/06/13 00:12:29;;;;;;;6.78;4.68;;;;;;;;;;5111207;28;20051;-70
2022/06/13 00:14:56;;;;;;;7.53;4.88;;;;;;;;;;5111198;28;20050;-71
2022/06/13 00:19:24;;;;;;;6.50;4.65;;;;;;;;;;5112016;27;20389;-71
2022/06/13 00:23:51;;;;;;;6.95;4.10;;;;;;;;;;5111115;27;20396;-71
2022/06/13 00:26:18;;;;;;;7.43;4.47;;;;;;;;;;5109948;28;20168;-71
2022/06/13 00:28:44;;;;;;;7.60;3.92;;;;;;;;;;5111154;28;20077;-72
2022/06/13 00:31:10;;;;;;;5.65;3.95;;;;;;;;;;5110729;28;20069;-72
2022/06/13 00:33:36;;;;;;;5.65;3.53;;;;;;;;;;5111216;28;20027;-71
2022/06/13 00:36:37;;;;;;;6.90;3.40;;;;;;;;;;5111062;27;20418;-71
2022/06/13 00:39:04;;;;;;;5.00;3.53;;;;;;;;;;5111563;28;20024;-70
2022/06/13 00:41:33;;;;;;;5.95;3.60;;;;;;;;;;5111697;28;20020;-70
2022/06/13 00:44:00;;;;;;;6.22;3.78;;;;;;;;;;5111337;28;20062;-70
2022/06/13 00:47:12;;;;;;;5.95;4.03;;;;;;;;;;5111731;27;20516;-71
2022/06/13 00:52:47;;;;;;;5.93;3.85;;;;;;;;;;5111005;27;20842;-71
2022/06/13 00:56:12;;;;;;;5.28;3.53;;;;;;;;;;5111976;27;20446;-70
2022/06/13 00:58:40;;;;;;;6.03;3.65;;;;;;;;;;5110806;28;20027;-70
2022/06/13 01:01:23;;;;;;;8.18;3.72;;;;;;;;;;5111624;27;20929;-71
2022/06/13 01:04:06;;;;;;;7.25;4.57;;;;;;;;;;5111388;27;20388;-71
2022/06/13 01:06:53;;;;;;;6.30;4.30;;;;;;;;;;5110933;28;20020;-71
2022/06/13 01:14:48;;;;;;;6.95;4.18;;;;;;;;;;5111787;27;20422;-70
2022/06/13 01:18:58;;;;;;;6.40;3.85;;;;;;;;;;5111053;27;20418;-71
2022/06/13 01:21:24;;;;;;;6.30;3.97;;;;;;;;;;5111414;28;20020;-71
2022/06/13 01:24:05;;;;;;;6.32;3.90;;;;;;;;;;5111146;28;20448;-71
2022/06/13 01:26:32;;;;;;;6.70;4.40;;;;;;;;;;5110763;28;20020;-71
2022/06/13 01:29:21;;;;;;;6.45;4.00;;;;;;;;;;5111088;28;20030;-71
2022/06/13 01:31:53;;;;;;;7.07;3.88;;;;;;;;;;5102990;28;20444;-71
2022/06/13 01:36:30;;;;;;;6.90;3.85;;;;;;;;;;5091268;28;20404;-71
2022/06/13 01:39:12;;;;;;;5.68;3.97;;;;;;;;;;5091077;28;20075;-70
2022/06/13 01:44:07;;;;;;;8.25;4.60;;;;;;;;;;5112001;27;20402;-70
2022/06/13 01:46:35;;;;;;;6.60;4.40;;;;;;;;;;5111475;28;20035;-70
2022/06/13 01:49:16;;;;;;;7.70;4.68;;;;;;;;;;5110771;28;20028;-71
2022/06/13 01:51:57;;;;;;;7.80;4.35;;;;;;;;;;5111032;28;20446;-71
2022/06/13 01:54:49;;;;;;;6.90;4.07;;;;;;;;;;5110975;28;20055;-70
2022/06/13 01:58:12;;;;;;;7.78;4.25;;;;;;;;;;5111343;27;20393;-70
2022/06/13 02:00:52;;;;;;;7.68;4.68;;;;;;;;;;5111169;27;20916;-70
2022/06/13 02:03:31;;;;;;;7.50;4.57;;;;;;;;;;5111280;28;20080;-70
2022/06/13 02:06:02;;;;;;;8.15;4.70;;;;;;;;;;5111466;28;20073;-70
2022/06/13 02:08:36;;;;;;;7.10;4.25;;;;;;;;;;5110929;28;20027;-71
2022/06/13 02:11:25;;;;;;;9.43;5.28;;;;;;;;;;5111095;28;20035;-71
2022/06/13 02:15:45;;;;;;;6.90;4.13;;;;;;;;;;5111249;27;20384;-71
2022/06/13 02:18:16;;;;;;;6.57;4.43;;;;;;;;;;5111658;28;20046;-71
2022/06/13 02:20:45;;;;;;;7.78;4.43;;;;;;;;;;5111225;28;20429;-71
2022/06/13 02:23:17;;;;;;;6.60;4.25;;;;;;;;;;5110776;28;20028;-71
2022/06/13 02:26:01;;;;;;;6.20;4.15;;;;;;;;;;5111106;28;20020;-71
2022/06/13 02:30:10;;;;;;;6.03;3.92;;;;;;;;;;5111290;27;20450;-71
2022/06/13 02:34:17;;;;;;;6.75;4.32;;;;;;;;;;5111303;27;20393;-71
2022/06/13 02:36:43;;;;;;;7.38;4.78;;;;;;;;;;5110798;28;20368;-71
2022/06/13 02:39:16;;;;;;;8.02;4.70;;;;;;;;;;5111161;28;20024;-71
2022/06/13 02:41:46;;;;;;;7.20;4.90;;;;;;;;;;5111389;28;20502;-71
2022/06/13 02:44:36;;;;;;;7.50;4.68;;;;;;;;;;5070541;28;20972;-71
2022/06/13 02:47:15;;;;;;;7.15;4.60;;;;;;;;;;5070744;28;20389;-71
2022/06/13 02:51:57;;;;;;;6.10;3.63;;;;;;;;;;5110998;27;20445;-71
2022/06/13 02:55:01;;;;;;;6.47;4.18;;;;;;;;;;5111577;27;20988;-70
2022/06/13 02:57:31;;;;;;;7.65;4.22;;;;;;;;;;5110780;28;20023;-71
2022/06/13 03:00:16;;;;;;;7.68;4.35;;;;;;;;;;5111430;28;20365;-70
2022/06/13 03:02:45;;;;;;;7.75;4.93;;;;;;;;;;5111601;28;20081;-71
2022/06/13 03:05:30;;;;;;;6.60;4.63;;;;;;;;;;5110823;28;20080;-71
2022/06/13 03:08:03;;;;;;;6.95;4.35;;;;;;;;;;5111053;28;20467;-71
2022/06/13 03:10:29;;;;;;;;;;;;;;;;;;5111446;28;20036;-71
2022/06/13 03:13:06;;;;;;;5.50;3.60;;;;;;;;;;5110511;28;20363;-70
2022/06/13 03:15:38;;;;;;;6.25;4.03;;;;;;;;;;5111011;28;20057;-71
2022/06/13 03:19:51;;;;;;;5.70;3.60;;;;;;;;;;5110873;27;20426;-71
2022/06/13 03:22:20;;;;;;;8.77;4.10;;;;;;;;;;5048492;28;20026;-71
2022/06/13 03:24:52;;;;;;;7.05;4.53;;;;;;;;;;5099697;28;20051;-71
2022/06/13 03:27:22;;;;;;;7.88;5.05;;;;;;;;;;5110692;28;20020;-71
2022/06/13 03:31:41;;;;;;;7.78;4.53;;;;;;;;;;5111329;27;20385;-71
2022/06/13 03:35:53;;;;;;;7.80;4.82;;;;;;;;;;5111739;27;20460;-71
2022/06/13 03:44:14;;;;;;;7.70;4.75;;;;;;;;;;5111989;27;20385;-71
2022/06/13 03:47:44;;;;;;;6.68;4.55;;;;;;;;;;5111150;27;20392;-71
2022/06/13 03:51:19;;;;;;;7.57;4.60;;;;;;;;;;5111341;27;20392;-71
2022/06/13 03:55:26;;;;;;;8.35;4.88;;;;;;;;;;5110997;27;20498;-70
2022/06/13 03:58:08;;;;;;;7.22;4.38;;;;;;;;;;5111186;28;20027;-70
2022/06/13 04:00:39;;;;;;;8.00;4.93;;;;;;;;;;5111096;28;20026;-71
2022/06/13 04:04:39;;;;;;;7.32;4.38;;;;;;;;;;5111309;27;20756;-71
2022/06/13 04:07:06;;;;;;;7.55;4.30;;;;;;;;;;5111249;28;20028;-70
2022/06/13 04:09:46;;;;;;;6.20;3.92;;;;;;;;;;5110854;28;20051;-70
2022/06/13 04:12:30;;;;;;;8.32;4.50;;;;;;;;;;5111566;28;20081;-70
2022/06/13 04:17:32;;;;;;;6.15;4.00;;;;;;;;;;5173927;27;20684;-71
2022/06/13 04:23:28;;;;;;;7.45;4.55;;;;;;;;;;5110985;27;20396;-71
2022/06/13 04:26:08;;;;;;;6.97;4.47;;;;;;;;;;5111241;28;20380;-71
2022/06/13 04:28:49;;;;;;;7.82;4.45;;;;;;;;;;5110796;28;20035;-71
2022/06/13 04:33:12;;;;;;;7.65;4.38;;;;;;;;;;5111804;27;20447;-71
2022/06/13 04:38:21;;;;;;;6.30;4.28;;;;;;;;;;5112056;27;20384;-72
2022/06/13 04:40:54;;;;;;;10.10;4.55;;;;;;;;;;5111271;28;20034;-71
2022/06/13 04:43:23;;;;;;;10.20;4.45;;;;;;;;;;5110993;28;20024;-71
2022/06/13 04:45:53;;;;;;;7.47;4.38;;;;;;;;;;5111292;28;20099;-75
2022/06/13 04:48:20;;;;;;;9.32;5.18;;;;;;;;;;5111060;28;20028;-74
2022/06/13 04:50:49;;;;;;;7.18;4.20;;;;;;;;;;5110669;28;20050;-76
2022/06/13 04:53:18;;;;;;;16.75;5.82;;;;;;;;;;5110094;28;20015;-74
2022/06/13 04:55:46;;;;;;;30.40;10.30;;;;;;;;;;5108573;28;20098;-74
2022/06/13 04:59:15;;;;;;;8.60;3.95;;;;;;;;;;5107020;27;20396;-73
2022/06/13 05:03:20;;;;;;;6.22;3.92;;;;;;;;;;5131050;27;20369;-74
2022/06/13 05:05:47;;;;;;;5.82;3.83;;;;;;;;;;5109392;28;20024;-76
2022/06/13 05:08:22;;;;;;;5.20;3.47;;;;;;;;;;5111188;28;20038;-74
2022/06/13 05:10:49;;;;;;;6.32;3.53;;;;;;;;;;5110825;28;20020;-74
2022/06/13 05:13:16;;;;;;;5.93;3.55;;;;;;;;;;5110912;28;20383;-74
2022/06/13 05:15:44;;;;;;;5.90;3.50;;;;;;;;;;5111019;28;20039;-74
2022/06/13 05:18:16;;;;;;;6.00;3.65;;;;;;;;;;5105638;28;20428;-75
2022/06/13 05:20:53;;;;;;;6.18;3.75;;;;;;;;;;5095275;28;20039;-73
2022/06/13 05:23:31;;;;;;;5.45;3.63;;;;;;;;;;5090011;28;20093;-69
2022/06/13 05:25:59;;;;;;;5.05;3.17;;;;;;;;;;5094276;28;20044;-71
2022/06/13 05:28:27;;;;;;;5.18;3.00;;;;;;;;;;5100160;28;20036;-70
2022/06/13 05:34:18;;;;;;;6.47;3.47;;;;;;;;;;5111014;27;20397;-69
2022/06/13 05:36:44;;;;;;;5.80;3.00;;;;;;;;;;5110412;28;20384;-69
2022/06/13 05:39:11;;;;;;;6.60;4.13;;;;;;;;;;5110261;28;20063;-69
2022/06/13 05:43:26;;;;;;;5.35;2.50;;;;;;;;;;5108551;27;20396;-70
2022/06/13 05:45:52;;;;;;;4.03;2.50;;;;;;;;;;5108694;28;20622;-69
2022/06/13 05:48:20;;;;;;;5.75;2.42;;;;;;;;;;5108744;28;20071;-69
2022/06/13 05:53:26;;;;;;;5.45;2.60;;;;;;;;;;5108553;27;20969;-69
2022/06/13 05:55:55;;;;;;;4.03;2.42;;;;;;;;;;5110033;28;20070;-70
2022/06/13 05:58:22;;;;;;;8.93;3.03;;;;;;;;;;5110576;28;20049;-68
2022/06/13 06:00:50;;;;;;;4.90;2.90;;;;;;;;;;5106641;28;20028;-70
2022/06/13 06:03:16;;;;;;;4.40;2.60;;;;;;;;;;5118217;28;20032;-68
2022/06/13 06:05:43;;;;;;;6.10;2.75;;;;;;;;;;5108853;28;20016;-70
2022/06/13 06:08:20;;;;;;;6.78;3.03;;;;;;;;;;5107282;28;20643;-71
2022/06/13 06:12:23;;;;;;;4.40;2.65;;;;;;;;;;5108162;27;20911;-69
2022/06/13 06:15:46;;;;;;;4.93;2.95;;;;;;;;;;5107705;27;20457;-70
2022/06/13 06:18:51;;;;;;;3.85;2.10;;;;;;;;;;5109718;27;20835;-70
2022/06/13 06:21:17;;;;;;;4.60;2.10;;;;;;;;;;5107364;28;20065;-71
2022/06/13 06:23:43;;;;;;;6.70;2.63;;;;;;;;;;5106018;28;20081;-70
2022/06/13 06:26:11;;;;;;;6.10;2.70;;;;;;;;;;5103593;28;20016;-72
2022/06/13 06:28:37;;;;;;;10.23;3.22;;;;;;;;;;5106158;28;20039;-70
2022/06/13 06:31:04;;;;;;;3.67;2.17;;;;;;;;;;5104212;28;20020;-68
2022/06/13 06:33:30;;;;;;;3.45;2.10;;;;;;;;;;5096041;28;20127;-69
2022/06/13 06:35:56;;;;;;;4.10;2.47;;;;;;;;;;5106756;28;20043;-71
2022/06/13 06:40:33;;;;;;;7.13;2.08;;;;;;;;;;5108143;27;20923;-74
2022/06/13 06:43:19;;;;;;;3.70;2.10;;;;;;;;;;5108361;27;20384;-72
2022/06/13 06:45:46;;;;;;;3.92;2.33;;;;;;;;;;5108746;28;20055;-73
2022/06/13 06:48:14;;;;;;;3.70;2.08;;;;;;;;;;5108688;28;20099;-72
2022/06/13 06:50:43;;;;;;;3.10;1.95;;;;;;;;;;5107080;28;20024;-73
2022/06/13 06:53:10;;;;;;;4.50;2.08;;;;;;;;;;5105972;28;20565;-73
2022/06/13 07:00:50;;;;;;;2.85;1.92;;;;;;;;;;5110761;27;20393;-71
2022/06/13 07:05:13;;;;;;;4.25;2.00;;;;;;;;;;5110185;27;20830;-72
2022/06/13 07:09:21;;;;;;;3.95;1.80;;;;;;;;;;5100815;27;20463;-70
2022/06/13 07:11:54;;;;;;;4.07;2.35;;;;;;;;;;5090429;28;20091;-70
2022/06/13 07:15:53;;;;;;;3.33;2.22;;;;;;;;;;5110553;27;20939;-69
2022/06/13 07:18:19;;;;;;;3.42;2.10;;;;;;;;;;5110284;28;20415;-70
2022/06/13 07:20:45;;;;;;;4.13;1.90;;;;;;;;;;5110838;28;20471;-71
2022/06/13 07:23:11;;;;;;;4.35;1.90;;;;;;;;;;5110252;28;20019;-70
2022/06/13 07:26:00;;;;;;;3.47;2.00;;;;;;;;;;5168160;27;20118;-69
2022/06/13 07:28:27;;;;;;;3.00;1.90;;;;;;;;;;5147278;27;20019;-68
2022/06/13 07:30:53;;;;;;;3.05;1.83;;;;;;;;;;5139671;27;20035;-72
2022/06/13 07:33:20;;;;;;;5.28;2.42;;;;;;;;;;5143978;27;20045;-73
2022/06/13 07:35:46;;;;;;;4.57;1.73;;;;;;;;;;5147393;27;20015;-70
2022/06/13 07:38:18;;;;;;;3.42;1.95;;;;;;;;;;5130904;27;20027;-70
2022/06/13 07:40:51;;;;;;;3.03;1.90;;;;;;;;;;5111925;28;20031;-70
2022/06/13 07:43:30;;;;;;;2.88;1.60;;;;;;;;;;5128446;27;20019;-69
2022/06/13 07:45:59;;;;;;;2.58;1.63;;;;;;;;;;5122784;27;20026;-70
2022/06/13 07:48:26;;;;;;;4.72;2.08;;;;;;;;;;5137326;27;20019;-70
2022/06/13 07:50:53;;;;;;;2.60;1.83;;;;;;;;;;5128843;28;20034;-69
2022/06/13 07:53:19;;;;;;;3.58;1.95;;;;;;;;;;5128058;28;20019;-72
2022/06/13 07:55:45;;;;;;;3.85;1.98;;;;;;;;;;5127121;28;20024;-72
2022/06/13 07:58:17;;;;;;;5.82;2.78;;;;;;;;;;5130202;27;20089;-71
2022/06/13 08:00:45;;;;;;;6.68;2.17;;;;;;;;;;5133957;27;20026;-69
2022/06/13 08:03:16;;;;;;;2.97;1.95;;;;;;;;;;5123892;27;20039;-70
2022/06/13 08:05:42;;;;;;;2.88;1.70;;;;;;;;;;5137679;27;20054;-71
2022/06/13 08:08:08;;;;;;;3.60;2.00;;;;;;;;;;5146347;27;20094;-71
2022/06/13 08:10:37;;;;;;;3.38;1.63;;;;;;;;;;5145787;27;20479;-72
2022/06/13 08:13:03;;;;;;;2.72;1.70;;;;;;;;;;5146579;27;20383;-71
2022/06/13 08:15:31;;;;;;;4.60;1.70;;;;;;;;;;5146497;27;20015;-71
2022/06/13 08:17:57;;;;;;;3.40;1.80;;;;;;;;;;5146772;27;20050;-71
2022/06/13 08:20:24;;;;;;;4.30;2.10;;;;;;;;;;5128050;27;20055;-70
2022/06/13 08:22:51;;;;;;;3.28;1.90;;;;;;;;;;5140364;27;20360;-69
2022/06/13 08:25:19;;;;;;;4.63;2.10;;;;;;;;;;5140887;27;20058;-70
2022/06/13 08:27:45;;;;;;;2.03;1.48;;;;;;;;;;5138287;27;20487;-71
2022/06/13 08:30:11;;;;;;;3.92;2.03;;;;;;;;;;5147948;27;20050;-71
2022/06/13 08:34:34;;;;;;;2.13;1.40;;;;;;;;;;5110592;27;20552;-72
2022/06/13 08:37:00;;;;;;;3.08;1.80;;;;;;;;;;5109453;28;20041;-71
2022/06/13 08:40:19;;;;;;;3.58;1.63;;;;;;;;;;5108562;27;20949;-73
2022/06/13 08:42:52;;;;;;;2.42;1.45;;;;;;;;;;5108633;28;20381;-71
2022/06/13 08:45:18;;;;;;;;;;;;;;;;;;5109107;28;20024;-72
2022/06/13 08:47:46;;;;;;;4.70;1.65;;;;;;;;;;5108603;28;19972;-71
2022/06/13 08:50:40;;;;;;;2.30;1.60;;;;;;;;;;5108269;28;20643;-72
2022/06/13 08:56:54;;;;;;;2.70;1.50;;;;;;;;;;5109020;28;20133;-71
2022/06/13 08:59:25;;;;;;;3.72;1.90;;;;;;;;;;5109664;28;20484;-71
2022/06/13 09:01:54;;;;;;;2.97;1.50;;;;;;;;;;5110280;28;20056;-71
2022/06/13 09:04:27;;;;;;;2.80;1.70;;;;;;;;;;5110003;28;20043;-71
2022/06/13 09:07:00;;;;;;;2.17;1.50;;;;;;;;;;5110261;28;20024;-71
2022/06/13 09:09:26;;;;;;;;;;;;;;;;;;5111071;28;20027;-70
2022/06/13 09:12:05;;;;;;;2.63;1.65;;;;;;;;;;5109792;28;19956;-70
2022/06/13 09:14:35;;;;;;;2.63;1.73;;;;;;;;;;5106566;28;20077;-72
2022/06/13 09:17:06;;;;;;;2.72;1.42;;;;;;;;;;5110122;28;20020;-68
2022/06/13 09:19:37;;;;;;;1.73;1.30;;;;;;;;;;5117238;28;20578;-71
2022/06/13 09:22:07;;;;;;;3.33;1.70;;;;;;;;;;5087789;28;20099;-69
2022/06/13 09:24:38;;;;;;;2.67;1.50;;;;;;;;;;5095401;28;20032;-70
2022/06/13 09:27:06;;;;;;;2.25;1.58;;;;;;;;;;5113600;28;20447;-69
2022/06/13 09:29:37;;;;;;;2.67;1.40;;;;;;;;;;5125289;28;20023;-73
2022/06/13 09:32:06;;;;;;;3.17;1.83;;;;;;;;;;5127063;28;20057;-73
2022/06/13 09:34:40;;;;;;;2.85;1.63;;;;;;;;;;5113786;28;20035;-72
2022/06/13 09:37:25;;;;;;;4.07;1.80;;;;;;;;;;5109419;28;20472;-70
2022/06/13 09:39:51;;;;;;;2.85;1.67;;;;;;;;;;5107266;28;20077;-69
2022/06/13 09:42:38;;;;;;;6.78;2.05;;;;;;;;;;5126696;28;20471;-72
2022/06/13 09:45:04;;;;;;;3.83;1.50;;;;;;;;;;5127605;28;20089;-70
2022/06/13 09:47:33;;;;;;;2.20;1.50;;;;;;;;;;5127905;28;20032;-69
2022/06/13 09:50:18;;;;;;;2.67;1.42;;;;;;;;;;5128216;28;20049;-69
2022/06/13 09:52:55;;;;;;;2.75;1.63;;;;;;;;;;5125380;28;20040;-70
2022/06/13 09:55:41;;;;;;;2.78;1.58;;;;;;;;;;5129077;28;20742;-70
2022/06/13 09:58:13;;;;;;;2.95;1.80;;;;;;;;;;5127656;28;20020;-70
2022/06/13 10:03:51;;;;;;;2.75;1.85;;;;;;;;;;5124287;28;20085;-70
2022/06/13 10:06:21;;;;;;;2.15;1.50;;;;;;;;;;5114021;28;20027;-70
2022/06/13 10:08:55;;;;;;;2.42;1.58;;;;;;;;;;5113671;28;20031;-70
2022/06/13 10:11:41;;;;;;;5.38;1.92;;;;;;;;;;5105137;28;20425;-70
2022/06/13 10:14:43;;;;;;;2.00;1.30;;;;;;;;;;5105176;27;20392;-69
2022/06/13 10:17:52;;;;;;;3.13;1.95;;;;;;;;;;5069152;28;20729;-69
2022/06/13 10:20:24;;;;;;;3.00;1.70;;;;;;;;;;5067224;28;20024;-70
2022/06/13 10:23:11;;;;;;;2.65;1.73;;;;;;;;;;5067767;28;20480;-69
2022/06/13 10:25:47;;;;;;;3.55;1.58;;;;;;;;;;5067550;28;20025;-68
2022/06/13 10:28:16;;;;;;;2.45;1.40;;;;;;;;;;5067475;28;20104;-70
2022/06/13 10:30:49;;;;;;;1.83;1.40;;;;;;;;;;5068735;28;20154;-69
2022/06/13 10:33:38;;;;;;;4.90;1.70;;;;;;;;;;5067299;28;20427;-73
2022/06/13 10:36:21;;;;;;;2.10;1.38;;;;;;;;;;5068840;28;20032;-69
2022/06/13 10:39:07;;;;;;;2.78;1.70;;;;;;;;;;5068163;28;20049;-72
2022/06/13 10:41:36;;;;;;;2.38;1.60;;;;;;;;;;5064988;28;20105;-70
2022/06/13 10:44:03;;;;;;;2.33;1.50;;;;;;;;;;5061685;28;20028;-70
2022/06/13 10:46:29;;;;;;;2.38;1.75;;;;;;;;;;5061880;28;20036;-71
2022/06/13 10:49:13;;;;;;;3.55;1.80;;;;;;;;;;5066992;28;20016;-70
2022/06/13 10:51:40;;;;;;;4.10;2.33;;;;;;;;;;5066756;28;20090;-71
2022/06/13 10:54:10;;;;;;;1.52;1.20;;;;;;;;;;5066220;28;20389;-73
2022/06/13 10:56:40;;;;;;;3.72;1.60;;;;;;;;;;5065418;28;20381;-73
2022/06/13 10:59:06;;;;;;;4.05;1.65;;;;;;;;;;5066360;28;20021;-72
2022/06/13 11:01:33;;;;;;;3.42;2.00;;;;;;;;;;5044795;28;20112;-71
2022/06/13 11:04:25;;;;;;;2.03;1.40;;;;;;;;;;5046878;28;20025;-73
2022/06/13 11:06:54;;;;;;;3.50;1.60;;;;;;;;;;5048928;28;20037;-72
2022/06/13 11:09:23;;;;;;;4.70;1.80;;;;;;;;;;5045999;28;20013;-73
2022/06/13 11:11:54;;;;;;;5.10;1.88;;;;;;;;;;5064697;28;20057;-74
2022/06/13 11:14:28;;;;;;;3.33;1.67;;;;;;;;;;5059215;28;20379;-73
2022/06/13 11:22:40;;;;;;;2.92;1.80;;;;;;;;;;5045519;28;20043;-72
2022/06/13 11:25:19;;;;;;;3.83;1.95;;;;;;;;;;5044236;28;20052;-72
2022/06/13 11:27:47;;;;;;;3.38;1.95;;;;;;;;;;5038191;28;20108;-74
2022/06/13 11:30:28;;;;;;;3.20;1.70;;;;;;;;;;5031445;28;20022;-72
2022/06/13 11:33:02;;;;;;;4.38;1.80;;;;;;;;;;5029421;28;20034;-74
2022/06/13 11:35:47;;;;;;;2.83;1.60;;;;;;;;;;5032501;28;20335;-72
2022/06/13 11:38:21;;;;;;;4.65;2.50;;;;;;;;;;5031883;28;20033;-73
2022/06/13 11:41:07;;;;;;;3.50;1.88;;;;;;;;;;5033675;28;20385;-75
2022/06/13 11:43:40;;;;;;;3.50;1.73;;;;;;;;;;5035433;28;20030;-75
2022/06/13 11:46:08;;;;;;;2.15;1.50;;;;;;;;;;5034792;28;20025;-74
2022/06/13 11:48:35;;;;;;;2.40;1.48;;;;;;;;;;5034403;28;20021;-75
2022/06/13 11:51:03;;;;;;;2.17;1.55;;;;;;;;;;5035638;28;20032;-73
2022/06/13 11:53:38;;;;;;;2.13;1.38;;;;;;;;;;5034468;28;20026;-73
2022/06/13 11:56:06;;;;;;;2.45;1.63;;;;;;;;;;5035642;28;20035;-73
2022/06/13 11:58:37;;;;;;;3.10;1.92;;;;;;;;;;5034639;28;20032;-72
2022/06/13 12:01:16;;;;;;;2.80;1.50;;;;;;;;;;5035032;28;20017;-72
2022/06/13 12:03:46;;;;;;;6.40;3.75;;;;;;;;;;5035260;28;20035;-74
2022/06/13 12:06:15;;;;;;;3.28;1.77;;;;;;;;;;5034803;28;20029;-72
2022/06/13 12:08:42;;;;;;;3.45;1.60;;;;;;;;;;5034539;28;20469;-73
2022/06/13 12:11:10;;;;;;;4.97;1.80;;;;;;;;;;5035152;28;20026;-73
2022/06/13 12:13:38;;;;;;;4.10;1.90;;;;;;;;;;5034819;28;20083;-71
2022/06/13 12:16:11;;;;;;;2.65;1.58;;;;;;;;;;5034911;28;20053;-71
2022/06/13 12:18:40;;;;;;;2.97;1.75;;;;;;;;;;5035119;28;20054;-72
2022/06/13 12:21:09;;;;;;;3.00;1.80;;;;;;;;;;5034768;28;20091;-72
2022/06/13 12:23:47;;;;;;;2.67;1.90;;;;;;;;;;5034947;28;20055;-72
2022/06/13 12:26:21;;;;;;;2.92;1.45;;;;;;;;;;5034946;28;20076;-73
2022/06/13 12:28:53;;;;;;;4.50;1.92;;;;;;;;;;5043109;28;20025;-72
2022/06/13 12:31:19;;;;;;;;;;;;;;;;;;5055179;28;20029;-73
2022/06/13 12:33:51;;;;;;;5.10;2.15;;;;;;;;;;5055221;28;19909;-72
2022/06/13 12:36:32;;;;;;;3.03;1.60;;;;;;;;;;5054335;28;20045;-73
2022/06/13 12:39:05;;;;;;;4.27;1.73;;;;;;;;;;5053582;28;20017;-72
2022/06/13 12:41:43;;;;;;;3.28;1.55;;;;;;;;;;5054206;28;20103;-72
2022/06/13 12:44:16;;;;;;;3.25;1.55;;;;;;;;;;5053375;28;20386;-73
2022/06/13 12:46:54;;;;;;;9.00;1.67;;;;;;;;;;5054667;28;20094;-72
2022/06/13 12:49:39;;;;;;;3.40;1.30;;;;;;;;;;5053704;28;20543;-72
2022/06/13 12:52:19;;;;;;;3.17;1.70;;;;;;;;;;5054434;28;20033;-72
2022/06/13 12:55:04;;;;;;;3.95;1.67;;;;;;;;;;5054645;28;20032;-71
2022/06/13 12:57:46;;;;;;;3.15;1.85;;;;;;;;;;5054157;28;20493;-71
2022/06/13 13:00:30;;;;;;;3.50;1.80;;;;;;;;;;5054331;28;20022;-72
2022/06/13 13:02:56;;;;;;;2.92;1.77;;;;;;;;;;5053949;28;20029;-71
2022/06/13 13:05:34;;;;;;;2.53;1.60;;;;;;;;;;5054083;28;20060;-71
2022/06/13 13:08:19;;;;;;;3.00;1.83;;;;;;;;;;5054117;28;20070;-71
2022/06/13 13:10:54;;;;;;;3.28;1.70;;;;;;;;;;5052299;28;20358;-71
2022/06/13 13:13:27;;;;;;;3.42;1.85;;;;;;;;;;5054232;28;20031;-71
2022/06/13 13:15:54;;;;;;;4.15;2.33;;;;;;;;;;5053941;28;20053;-71
2022/06/13 13:18:32;;;;;;;3.15;1.95;;;;;;;;;;5053360;28;20083;-71
2022/06/13 13:21:06;;;;;;;5.72;2.13;;;;;;;;;;5053801;28;20420;-71
2022/06/13 13:23:39;;;;;;;4.05;2.15;;;;;;;;;;5053455;28;20060;-72
2022/06/13 13:26:05;;;;;;;3.63;2.25;;;;;;;;;;5052513;28;20029;-72
2022/06/13 13:28:40;;;;;;;5.13;2.35;;;;;;;;;;5053803;28;20044;-72
2022/06/13 13:31:14;;;;;;;3.65;1.90;;;;;;;;;;5053355;28;20477;-72
2022/06/13 13:33:49;;;;;;;3.90;2.15;;;;;;;;;;5052542;28;20045;-71
2022/06/13 13:36:16;;;;;;;3.05;1.77;;;;;;;;;;5053415;28;20108;-72
2022/06/13 13:38:45;;;;;;;2.65;1.85;;;;;;;;;;5053335;28;20024;-71
2022/06/13 13:41:11;;;;;;;4.20;2.20;;;;;;;;;;5053622;28;20017;-71
2022/06/13 13:43:40;;;;;;;5.93;2.13;;;;;;;;;;5053488;28;20028;-71
2022/06/13 13:46:39;;;;;;;3.15;1.70;;;;;;;;;;5053209;28;20024;-72
2022/06/13 13:49:13;;;;;;;4.55;1.80;;;;;;;;;;5030890;28;20037;-72
2022/06/13 13:51:42;;;;;;;6.70;2.13;;;;;;;;;;5053113;28;20547;-72
2022/06/13 13:54:18;;;;;;;3.63;1.73;;;;;;;;;;5053520;28;20029;-71
2022/06/13 13:56:46;;;;;;;3.47;2.00;;;;;;;;;;5052517;28;20488;-71
2022/06/13 13:59:14;;;;;;;3.05;2.03;;;;;;;;;;5034192;28;20037;-71
2022/06/13 14:01:48;;;;;;;3.30;1.70;;;;;;;;;;5029648;28;20222;-70
2022/06/13 14:04:28;;;;;;;3.15;1.60;;;;;;;;;;5033281;28;20026;-72
2022/06/13 14:07:13;;;;;;;3.00;1.60;;;;;;;;;;5032976;28;20382;-70
2022/06/13 14:09:39;;;;;;;3.33;1.70;;;;;;;;;;5053030;28;20028;-71
2022/06/13 14:12:09;;;;;;;3.35;1.40;;;;;;;;;;5052650;28;20380;-70
2022/06/13 14:14:50;;;;;;;2.92;1.67;;;;;;;;;;5052665;28;20025;-73
2022/06/13 14:17:28;;;;;;;4.60;1.40;;;;;;;;;;5052791;28;20131;-73
2022/06/13 14:20:02;;;;;;;7.57;3.40;;;;;;;;;;5038817;28;20101;-73
2022/06/13 14:22:35;;;;;;;2.00;1.25;;;;;;;;;;5032783;28;20091;-70
2022/06/13 14:25:04;;;;;;;2.45;1.30;;;;;;;;;;5031783;28;20026;-73
2022/06/13 14:27:31;;;;;;;5.80;3.00;;;;;;;;;;5031014;28;20040;-69
2022/06/13 14:33:00;;;;;;;3.08;1.50;;;;;;;;;;5032082;28;20035;-70
2022/06/13 14:35:44;;;;;;;1.92;1.27;;;;;;;;;;5031609;28;20025;-70
2022/06/13 14:38:15;;;;;;;2.85;1.30;;;;;;;;;;5031528;28;20366;-70
2022/06/13 14:40:45;;;;;;;3.95;1.88;;;;;;;;;;5032527;28;20471;-70
2022/06/13 14:43:20;;;;;;;2.42;1.52;;;;;;;;;;5032798;28;20032;-70
2022/06/13 14:47:20;;;;;;;1.90;1.40;;;;;;;;;;5109268;27;20422;-71
2022/06/13 14:49:54;;;;;;;3.45;1.30;;;;;;;;;;5110592;28;20051;-71
2022/06/13 14:52:21;;;;;;;4.18;1.38;;;;;;;;;;5110668;28;20603;-69
2022/06/13 14:54:48;;;;;;;2.42;1.20;;;;;;;;;;5110359;28;20384;-70
2022/06/13 14:58:44;;;;;;;1.77;1.20;;;;;;;;;;5106299;27;20413;-69
2022/06/13 15:01:31;;;;;;;1.33;1.10;;;;;;;;;;5106818;28;20034;-70
2022/06/13 15:04:03;;;;;;;3.67;1.60;;;;;;;;;;5106670;28;20028;-70
2022/06/13 15:06:32;;;;;;;3.92;2.55;;;;;;;;;;5104930;28;20024;-72
2022/06/13 15:09:01;;;;;;;5.65;2.80;;;;;;;;;;5104533;28;20077;-72
2022/06/13 15:11:39;;;;;;;3.22;1.80;;;;;;;;;;5102029;28;20495;-70
2022/06/13 15:14:10;;;;;;;4.97;1.45;;;;;;;;;;5105512;28;20032;-70
2022/06/13 15:16:39;;;;;;;2.75;1.50;;;;;;;;;;5102930;28;20439;-71
2022/06/13 15:19:06;;;;;;;4.55;1.10;;;;;;;;;;5106780;28;20034;-71
2022/06/13 15:21:38;;;;;;;3.60;1.90;;;;;;;;;;5104461;28;20536;-71
2022/06/13 15:24:16;;;;;;;3.10;1.35;;;;;;;;;;5102223;28;20031;-72
2022/06/13 15:26:44;;;;;;;2.15;1.38;;;;;;;;;;5106149;28;20036;-70
2022/06/13 15:29:14;;;;;;;2.95;1.80;;;;;;;;;;5108874;28;20027;-72
2022/06/13 15:31:42;;;;;;;2.55;1.67;;;;;;;;;;5107904;28;20023;-70
2022/06/13 15:34:12;;;;;;;5.35;2.05;;;;;;;;;;5105763;28;20375;-70
2022/06/13 15:36:39;;;;;;;4.57;1.90;;;;;;;;;;5103348;28;20035;-71
2022/06/13 15:39:25;;;;;;;4.68;1.83;;;;;;;;;;5100970;28;20679;-71
2022/06/13 15:43:42;;;;;;;4.57;2.22;;;;;;;;;;5104992;27;20372;-70
2022/06/13 15:46:17;;;;;;;4.25;2.00;;;;;;;;;;5105568;28;20081;-72
2022/06/13 15:48:43;;;;;;;3.55;1.88;;;;;;;;;;5105315;28;20024;-70
2022/06/13 15:51:14;;;;;;;3.42;2.08;;;;;;;;;;5106074;28;20022;-71
2022/06/13 15:53:40;;;;;;;5.43;1.63;;;;;;;;;;5109917;28;20031;-69
2022/06/13 15:56:06;;;;;;;4.22;1.77;;;;;;;;;;5110605;28;20066;-72
2022/06/13 15:58:32;;;;;;;3.20;2.10;;;;;;;;;;5109766;28;20491;-71
2022/06/13 16:00:58;;;;;;;5.05;2.28;;;;;;;;;;5110738;28;20073;-70
2022/06/13 16:03:26;;;;;;;3.63;1.90;;;;;;;;;;5110982;28;20031;-70
2022/06/13 16:05:56;;;;;;;5.45;1.98;;;;;;;;;;5110435;28;20099;-71
2022/06/13 16:08:23;;;;;;;4.45;2.03;;;;;;;;;;5110796;28;20038;-71
2022/06/13 16:10:51;;;;;;;5.07;2.13;;;;;;;;;;5110669;28;20016;-71
2022/06/13 16:13:23;;;;;;;3.50;1.58;;;;;;;;;;5110449;28;20495;-70
2022/06/13 16:17:12;;;;;;;2.13;1.48;;;;;;;;;;5111431;27;20392;-69
2022/06/13 16:19:41;;;;;;;6.72;1.77;;;;;;;;;;5110535;28;20551;-70
2022/06/13 16:22:09;;;;;;;2.58;1.50;;;;;;;;;;5111067;28;20035;-70
2022/06/13 16:24:38;;;;;;;2.72;1.60;;;;;;;;;;5111041;28;20091;-70
2022/06/13 16:27:04;;;;;;;2.63;1.27;;;;;;;;;;5110620;28;20472;-70
2022/06/13 16:29:31;;;;;;;2.78;1.60;;;;;;;;;;5111029;28;20024;-70
2022/06/13 16:31:57;;;;;;;1.17;1.00;;;;;;;;;;5126742;28;20027;-70
2022/06/13 16:34:26;;;;;;;2.03;1.30;;;;;;;;;;5110443;28;20031;-70
2022/06/13 16:37:00;;;;;;;2.42;1.00;;;;;;;;;;5110807;28;20035;-70
2022/06/13 16:39:46;;;;;;;2.90;1.25;;;;;;;;;;5110759;28;20070;-71
2022/06/13 16:42:13;;;;;;;2.63;1.33;;;;;;;;;;5110362;28;20058;-70
2022/06/13 16:44:41;;;;;;;2.33;1.35;;;;;;;;;;5110756;28;20020;-70
2022/06/13 16:47:23;;;;;;;2.70;1.40;;;;;;;;;;5110236;28;20028;-70
2022/06/13 16:49:51;;;;;;;2.35;1.00;;;;;;;;;;5110592;28;20081;-70
2022/06/13 16:52:19;;;;;;;3.90;1.50;;;;;;;;;;5110658;28;20480;-71
2022/06/13 16:55:05;;;;;;;2.35;1.27;;;;;;;;;;5109905;28;20468;-70
2022/06/13 16:57:40;;;;;;;3.28;1.60;;;;;;;;;;5110511;28;20024;-70
2022/06/13 17:00:08;;;;;;;3.03;1.50;;;;;;;;;;5110310;28;20023;-70